createdAt,value
2019-06-10T00:00:36.555Z,18.60
2019-06-10T00:03:42.173Z,18.61
2019-06-10T00:06:46.112Z,18.57
2019-06-10T00:09:51.164Z,18.59
2019-06-10T00:12:55.486Z,18.56
2019-06-10T00:16:02.664Z,18.46
2019-06-10T00:19:06.781Z,18.44
2019-06-10T00:22:11.859Z,18.42
2019-06-10T00:25:15.860Z,18.40
2019-06-10T00:28:21.778Z,18.39
2019-06-10T00:31:25.276Z,18.11
2019-06-10T00:34:31.165Z,17.91
2019-06-10T00:37:35.131Z,17.80
2019-06-10T00:40:41.581Z,17.76
2019-06-10T00:43:45.160Z,17.84
2019-06-10T00:46:51.407Z,17.73
2019-06-10T00:49:54.981Z,17.60
2019-06-10T00:53:01.331Z,17.55
2019-06-10T00:56:06.763Z,17.61
2019-06-10T00:59:14.798Z,17.58
2019-06-10T01:02:18.057Z,17.58
2019-06-10T01:05:22.224Z,17.50
2019-06-10T01:08:26.140Z,17.45
2019-06-10T01:11:31.186Z,17.40
2019-06-10T01:14:34.975Z,17.53
2019-06-10T01:17:41.578Z,17.53
2019-06-10T01:20:45.313Z,17.60
2019-06-10T01:23:51.004Z,17.55
2019-06-10T01:26:55.048Z,17.62
2019-06-10T01:30:01.500Z,17.62
2019-06-10T01:33:06.287Z,17.48
2019-06-10T01:36:12.587Z,17.30
2019-06-10T01:39:16.863Z,17.17
2019-06-10T01:42:22.048Z,17.10
2019-06-10T01:45:25.976Z,17.13
2019-06-10T01:48:43.283Z,17.17
2019-06-10T01:51:36.080Z,17.20
2019-06-10T01:54:42.067Z,17.20
2019-06-10T01:57:45.931Z,17.18
2019-06-10T02:01:17.423Z,17.22
2019-06-10T02:04:22.216Z,17.25
2019-06-10T02:07:25.919Z,17.31
2019-06-10T02:10:31.073Z,17.33
2019-06-10T02:13:35.147Z,17.33
2019-06-10T02:16:41.303Z,17.26
2019-06-10T02:19:44.647Z,17.15
2019-06-10T02:22:48.497Z,17.15
2019-06-10T02:25:52.691Z,17.20
2019-06-10T02:28:56.875Z,17.29
2019-06-10T02:32:04.828Z,17.21
2019-06-10T02:35:13.600Z,17.14
2019-06-10T02:38:21.430Z,17.14
2019-06-10T02:41:28.245Z,17.00
2019-06-10T02:44:32.475Z,16.89
2019-06-10T02:47:37.007Z,16.85
2019-06-10T02:51:04.305Z,17.00
2019-06-10T02:54:08.562Z,17.00
2019-06-10T02:57:14.572Z,17.13
2019-06-10T03:00:26.722Z,17.13
2019-06-10T03:03:36.027Z,16.97
2019-06-10T03:06:38.516Z,16.97
2019-06-10T03:09:36.311Z,17.14
2019-06-10T03:12:42.385Z,17.14
2019-06-10T03:15:52.243Z,17.21
2019-06-10T03:18:56.370Z,17.22
2019-06-10T03:22:02.608Z,17.27
2019-06-10T03:25:06.264Z,17.29
2019-06-10T03:28:12.093Z,17.24
2019-06-10T03:31:18.833Z,17.07
2019-06-10T03:34:30.730Z,17.06
2019-06-10T03:37:28.250Z,17.06
2019-06-10T03:40:32.769Z,17.09
2019-06-10T03:43:37.078Z,17.09
2019-06-10T03:46:43.129Z,17.07
2019-06-10T03:49:52.656Z,17.07
2019-06-10T03:52:52.821Z,17.07
2019-06-10T03:55:57.029Z,17.09
2019-06-10T03:59:02.889Z,17.17
2019-06-10T04:02:06.935Z,17.09
2019-06-10T04:05:13.213Z,16.95
2019-06-10T04:08:17.429Z,16.95
2019-06-10T04:11:24.063Z,17.00
2019-06-10T04:14:28.495Z,16.95
2019-06-10T04:17:33.428Z,16.91
2019-06-10T04:20:37.377Z,16.93
2019-06-10T04:23:42.517Z,16.85
2019-06-10T04:26:47.236Z,16.85
2019-06-10T04:29:52.379Z,16.87
2019-06-10T04:32:56.573Z,16.89
2019-06-10T04:36:02.870Z,16.99
2019-06-10T04:39:07.177Z,17.16
2019-06-10T04:42:12.963Z,17.29
2019-06-10T04:45:18.557Z,17.26
2019-06-10T04:48:23.511Z,17.21
2019-06-10T04:51:29.714Z,17.11
2019-06-10T04:54:33.951Z,17.02
2019-06-10T04:57:37.848Z,17.30
2019-06-10T05:00:42.889Z,18.12
2019-06-10T05:03:47.050Z,19.28
2019-06-10T05:06:52.664Z,20.62
2019-06-10T05:09:57.059Z,21.94
2019-06-10T05:13:03.135Z,21.20
2019-06-10T05:16:07.177Z,21.67
2019-06-10T05:19:12.880Z,20.65
2019-06-10T05:22:17.631Z,19.66
2019-06-10T05:25:22.789Z,19.38
2019-06-10T05:28:28.739Z,20.31
2019-06-10T05:31:34.962Z,21.39
2019-06-10T05:34:38.818Z,22.85
2019-06-10T05:37:42.676Z,23.61
2019-06-10T05:40:46.944Z,24.00
2019-06-10T05:43:52.242Z,24.60
2019-06-10T05:46:56.858Z,25.38
2019-06-10T05:50:03.214Z,25.44
2019-06-10T05:53:06.704Z,25.56
2019-06-10T05:56:12.638Z,25.63
2019-06-10T05:59:16.145Z,26.04
2019-06-10T06:02:22.321Z,25.89
2019-06-10T06:05:26.340Z,26.01
2019-06-10T06:08:33.362Z,25.45
2019-06-10T06:11:37.683Z,24.40
2019-06-10T06:14:42.653Z,23.30
2019-06-10T06:17:46.794Z,22.61
2019-06-10T06:20:52.609Z,22.12
2019-06-10T06:23:56.880Z,21.91
2019-06-10T06:27:02.522Z,21.96
2019-06-10T06:30:13.780Z,21.94
2019-06-10T06:33:13.821Z,21.89
2019-06-10T06:36:17.864Z,21.54
2019-06-10T06:39:24.136Z,21.36
2019-06-10T06:42:27.452Z,21.10
2019-06-10T06:45:34.381Z,20.76
2019-06-10T06:48:40.311Z,20.50
2019-06-10T06:51:54.677Z,20.79
2019-06-10T06:54:52.897Z,21.37
2019-06-10T06:57:56.417Z,21.67
2019-06-10T07:01:09.896Z,21.91
2019-06-10T07:04:06.851Z,21.90
2019-06-10T07:07:13.182Z,21.99
2019-06-10T07:10:17.436Z,22.07
2019-06-10T07:13:22.313Z,22.90
2019-06-10T07:16:26.834Z,23.21
2019-06-10T07:19:33.993Z,23.91
2019-06-10T07:22:40.057Z,24.47
2019-06-10T07:25:47.237Z,24.55
2019-06-10T07:28:49.288Z,24.77
2019-06-10T07:31:53.926Z,24.79
2019-06-10T07:34:57.848Z,24.78
2019-06-10T07:38:02.980Z,24.91
2019-06-10T07:41:07.356Z,24.94
2019-06-10T07:44:12.457Z,24.99
2019-06-10T07:47:16.844Z,25.21
2019-06-10T07:50:22.677Z,24.98
2019-06-10T07:53:26.950Z,24.96
2019-06-10T07:56:36.811Z,25.36
2019-06-10T07:59:37.398Z,25.55
2019-06-10T08:02:44.208Z,25.90
2019-06-10T08:05:47.307Z,26.11
2019-06-10T08:08:53.162Z,26.27
2019-06-10T08:11:57.163Z,27.22
2019-06-10T08:15:02.794Z,28.29
2019-06-10T08:18:07.141Z,28.00
2019-06-10T08:21:12.222Z,28.07
2019-06-10T08:24:16.352Z,27.23
2019-06-10T08:27:22.714Z,26.64
2019-06-10T08:30:27.770Z,26.16
2019-06-10T08:33:33.115Z,26.27
2019-06-10T08:36:39.484Z,26.53
2019-06-10T08:40:23.487Z,26.70
2019-06-10T08:44:05.884Z,26.60
2019-06-10T08:47:41.146Z,26.31
2019-06-10T08:51:05.168Z,26.10
2019-06-10T08:54:55.488Z,26.41
2019-06-10T08:58:33.019Z,26.54
2019-06-10T09:05:26.841Z,25.97
2019-06-10T09:08:32.635Z,25.79
2019-06-10T09:11:36.680Z,25.61
2019-06-10T09:14:44.019Z,25.38
2019-06-10T09:17:49.582Z,25.16
2019-06-10T09:20:55.979Z,25.02
2019-06-10T09:23:59.967Z,25.03
2019-06-10T09:27:05.181Z,25.06
2019-06-10T09:30:09.801Z,25.05
2019-06-10T09:33:13.646Z,25.02
2019-06-10T09:36:17.503Z,24.94
2019-06-10T09:39:23.010Z,25.16
2019-06-10T09:42:27.728Z,25.33
2019-06-10T09:45:33.270Z,25.33
2019-06-10T09:48:37.400Z,25.28
2019-06-10T09:51:46.744Z,25.45
2019-06-10T09:54:50.857Z,25.61
2019-06-10T09:57:59.633Z,25.41
2019-06-10T10:00:59.279Z,25.08
2019-06-10T10:04:04.792Z,25.12
2019-06-10T10:07:09.181Z,25.35
2019-06-10T10:10:13.380Z,25.57
2019-06-10T10:13:17.963Z,25.88
2019-06-10T10:16:23.095Z,26.04
2019-06-10T10:19:27.577Z,25.95
2019-06-10T10:22:33.549Z,25.50
2019-06-10T10:25:38.187Z,25.34
2019-06-10T10:28:43.904Z,25.16
2019-06-10T10:31:50.752Z,24.56
2019-06-10T10:34:56.348Z,24.09
2019-06-10T10:37:59.929Z,23.81
2019-06-10T10:41:04.782Z,23.86
2019-06-10T10:44:09.226Z,23.88
2019-06-10T10:47:13.686Z,23.90
2019-06-10T10:50:22.399Z,23.90
2019-06-10T10:53:25.594Z,24.90
2019-06-10T10:56:29.455Z,25.92
2019-06-10T10:59:33.405Z,26.37
2019-06-10T11:02:37.300Z,26.59
2019-06-10T11:05:44.713Z,26.64
2019-06-10T11:08:48.325Z,26.77
2019-06-10T11:11:55.001Z,27.23
2019-06-10T11:15:01.890Z,27.29
2019-06-10T11:18:07.232Z,27.71
2019-06-10T11:21:13.221Z,27.81
2019-06-10T11:24:32.705Z,27.76
2019-06-10T11:27:22.823Z,27.46
2019-06-10T11:30:28.394Z,27.13
2019-06-10T11:33:33.651Z,26.62
2019-06-10T11:36:37.544Z,25.44
2019-06-10T11:39:41.477Z,24.75
2019-06-10T11:42:46.284Z,24.22
2019-06-10T11:45:55.127Z,24.00
2019-06-10T11:48:58.529Z,23.96
2019-06-10T11:52:03.207Z,23.80
2019-06-10T11:55:15.118Z,23.92
2019-06-10T11:58:14.228Z,24.38
2019-06-10T12:01:18.401Z,24.90
2019-06-10T12:04:23.899Z,25.15
2019-06-10T12:07:27.903Z,25.18
2019-06-10T12:10:33.018Z,25.45
2019-06-10T12:13:37.015Z,25.66
2019-06-10T12:19:46.811Z,26.39
2019-06-10T12:22:54.818Z,26.79
2019-06-10T12:25:59.290Z,27.19
2019-06-10T12:29:05.725Z,27.53
2019-06-10T12:32:09.088Z,27.32
2019-06-10T12:35:13.768Z,26.80
2019-06-10T12:38:17.914Z,26.53
2019-06-10T12:41:23.199Z,26.33
2019-06-10T12:44:27.419Z,26.14
2019-06-10T12:47:33.275Z,26.04
2019-06-10T12:50:37.332Z,26.34
2019-06-10T12:53:43.221Z,26.75
2019-06-10T12:56:47.322Z,26.99
2019-06-10T12:59:52.277Z,26.81
2019-06-10T13:02:57.379Z,26.49
2019-06-10T13:06:07.474Z,26.30
2019-06-10T13:09:12.899Z,26.11
2019-06-10T13:12:16.651Z,25.98
2019-06-10T13:15:22.154Z,25.88
2019-06-10T13:18:27.250Z,25.76
2019-06-10T13:21:32.991Z,25.65
2019-06-10T13:24:37.184Z,25.52
2019-06-10T13:27:42.835Z,25.46
2019-06-10T13:30:47.040Z,25.24
2019-06-10T13:33:52.928Z,24.95
2019-06-10T13:36:56.907Z,24.79
2019-06-10T13:40:02.269Z,24.70
2019-06-10T13:43:08.022Z,24.66
2019-06-10T13:46:12.320Z,24.58
2019-06-10T13:49:16.760Z,24.50
2019-06-10T13:52:23.143Z,24.37
2019-06-10T13:55:26.221Z,24.20
2019-06-10T13:58:30.232Z,24.08
2019-06-10T14:01:35.154Z,23.96
2019-06-10T14:04:39.163Z,24.00
2019-06-10T14:07:43.504Z,24.05
2019-06-10T14:10:48.396Z,24.11
2019-06-10T14:13:52.746Z,24.34
2019-06-10T14:16:57.046Z,24.44
2019-06-10T14:20:01.883Z,24.41
2019-06-10T14:23:06.319Z,24.46
2019-06-10T14:26:12.628Z,24.58
2019-06-10T14:29:16.991Z,24.59
2019-06-10T14:32:22.373Z,24.54
2019-06-10T14:35:26.981Z,24.55
2019-06-10T14:38:32.700Z,24.48
2019-06-10T14:41:37.059Z,24.41
2019-06-10T14:44:42.153Z,24.39
2019-06-10T14:47:46.413Z,24.39
2019-06-10T14:50:50.842Z,24.34
2019-06-10T14:53:54.854Z,24.22
2019-06-10T14:56:58.759Z,24.11
2019-06-10T15:00:03.226Z,24.06
2019-06-10T15:03:09.425Z,23.95
2019-06-10T15:06:13.533Z,23.87
2019-06-10T15:09:18.126Z,23.78
2019-06-10T15:12:22.899Z,23.74
2019-06-10T15:15:27.266Z,23.72
2019-06-10T15:18:33.017Z,23.69
2019-06-10T15:21:37.487Z,23.59
2019-06-10T15:24:42.747Z,23.51
2019-06-10T15:27:47.420Z,23.42
2019-06-10T15:30:52.467Z,23.36
2019-06-10T15:33:56.680Z,23.27
2019-06-10T15:37:02.822Z,23.26
2019-06-10T15:40:09.628Z,23.29
2019-06-10T15:43:13.913Z,23.34
2019-06-10T15:46:19.187Z,23.54
2019-06-10T15:49:26.069Z,23.86
2019-06-10T15:52:29.479Z,24.14
2019-06-10T15:55:55.553Z,24.25
2019-06-10T15:58:39.556Z,24.10
2019-06-10T16:01:44.208Z,24.00
2019-06-10T16:04:48.195Z,24.02
2019-06-10T16:07:53.069Z,23.98
2019-06-10T16:10:57.094Z,23.93
2019-06-10T16:14:02.873Z,23.73
2019-06-10T16:17:07.643Z,23.58
2019-06-10T16:20:13.160Z,23.40
2019-06-10T16:23:17.832Z,23.47
2019-06-10T16:26:25.289Z,23.64
2019-06-10T16:29:28.152Z,23.82
2019-06-10T16:32:32.958Z,23.96
2019-06-10T16:35:36.959Z,24.02
2019-06-10T16:38:42.309Z,23.94
2019-06-10T16:41:46.732Z,23.93
2019-06-10T16:44:52.798Z,23.88
2019-06-10T16:47:56.483Z,23.85
2019-06-10T16:51:02.993Z,23.74
2019-06-10T16:54:06.235Z,23.66
2019-06-10T16:57:12.185Z,23.50
2019-06-10T17:00:16.412Z,23.39
2019-06-10T17:03:24.665Z,23.29
2019-06-10T17:06:26.913Z,23.24
2019-06-10T17:09:32.823Z,23.18
2019-06-10T17:12:37.029Z,23.10
2019-06-10T17:15:42.381Z,23.01
2019-06-10T17:18:46.381Z,22.95
2019-06-10T17:21:52.765Z,22.94
2019-06-10T17:24:56.331Z,22.88
2019-06-10T17:28:15.126Z,22.80
2019-06-10T17:31:07.195Z,22.72
2019-06-10T17:34:13.169Z,22.69
2019-06-10T17:37:17.853Z,22.63
2019-06-10T17:40:23.417Z,22.57
2019-06-10T17:43:29.368Z,22.42
2019-06-10T17:46:35.287Z,22.37
2019-06-10T17:49:41.852Z,22.29
2019-06-10T17:52:45.617Z,22.22
2019-06-10T17:55:52.430Z,22.12
2019-06-10T17:58:58.068Z,22.01
2019-06-10T18:02:03.021Z,21.88
2019-06-10T18:05:08.390Z,21.72
2019-06-10T18:08:13.077Z,21.60
2019-06-10T18:11:16.996Z,21.56
2019-06-10T18:14:22.955Z,21.50
2019-06-10T18:17:28.701Z,21.47
2019-06-10T18:20:34.015Z,21.39
2019-06-10T18:23:38.875Z,21.32
2019-06-10T18:26:43.103Z,21.25
2019-06-10T18:29:47.158Z,21.24
2019-06-10T18:32:52.560Z,21.22
2019-06-10T18:35:56.591Z,21.18
2019-06-10T18:39:02.976Z,21.13
2019-06-10T18:42:06.973Z,21.12
2019-06-10T18:45:14.259Z,21.10
2019-06-10T18:48:18.336Z,21.04
2019-06-10T18:51:23.052Z,21.04
2019-06-10T18:54:27.769Z,20.93
2019-06-10T18:57:33.534Z,20.83
2019-06-10T19:00:53.478Z,20.78
2019-06-10T19:03:43.987Z,20.75
2019-06-10T19:06:48.983Z,20.75
2019-06-10T19:09:53.141Z,20.77
2019-06-10T19:12:57.501Z,20.72
2019-06-10T19:16:02.362Z,20.63
2019-06-10T19:19:08.276Z,20.51
2019-06-10T19:22:13.222Z,20.54
2019-06-10T19:25:18.316Z,20.56
2019-06-10T19:28:23.177Z,20.58
2019-06-10T19:31:27.011Z,20.57
2019-06-10T19:34:31.304Z,20.51
2019-06-10T19:37:37.387Z,20.45
2019-06-10T19:40:42.889Z,20.46
2019-06-10T19:43:47.757Z,20.46
2019-06-10T19:46:52.220Z,20.39
2019-06-10T19:49:56.124Z,20.35
2019-06-10T19:53:02.469Z,20.34
2019-06-10T19:56:05.709Z,20.29
2019-06-10T19:59:09.927Z,20.29
2019-06-10T20:02:13.920Z,20.27
2019-06-10T20:05:18.595Z,20.26
2019-06-10T20:08:22.798Z,20.23
2019-06-10T20:11:26.747Z,20.16
2019-06-10T20:14:32.248Z,20.11
2019-06-10T20:17:37.504Z,20.05
2019-06-10T20:20:45.635Z,19.99
2019-06-10T20:24:06.587Z,19.86
2019-06-10T20:27:10.807Z,19.69
2019-06-10T20:30:25.333Z,19.60
2019-06-10T20:33:36.995Z,19.52
2019-06-10T20:36:42.453Z,19.40
2019-06-10T20:39:47.727Z,19.31
2019-06-10T20:42:51.744Z,19.22
2019-06-10T20:45:58.220Z,19.06
2019-06-10T20:49:03.317Z,18.97
2019-06-10T20:52:12.223Z,18.88
2019-06-10T20:55:14.475Z,18.85
2019-06-10T20:58:19.004Z,18.77
2019-06-10T21:01:25.230Z,18.71
2019-06-10T21:04:29.146Z,18.68
2019-06-10T21:07:34.529Z,18.67
2019-06-10T21:10:39.863Z,18.70
2019-06-10T21:13:48.660Z,18.68
2019-06-10T21:16:53.310Z,18.67
2019-06-10T21:19:56.128Z,18.63
2019-06-10T21:23:03.083Z,18.54
2019-06-10T21:26:06.815Z,18.45
2019-06-10T21:29:12.761Z,18.30
2019-06-10T21:32:16.544Z,18.16
2019-06-10T21:35:20.706Z,18.12
2019-06-10T21:38:24.628Z,18.11
2019-06-10T21:41:28.459Z,18.11
2019-06-10T21:44:32.389Z,18.10
2019-06-10T21:47:36.687Z,18.13
2019-06-10T21:50:43.813Z,18.12
2019-06-10T21:53:46.606Z,18.15
2019-06-10T21:56:54.094Z,18.20
2019-06-10T21:59:56.431Z,18.24
2019-06-10T22:03:02.192Z,18.28
2019-06-10T22:06:06.510Z,18.32
2019-06-10T22:09:12.479Z,18.36
2019-06-10T22:12:16.878Z,18.29
2019-06-10T22:15:22.617Z,18.29
2019-06-10T22:18:27.657Z,18.29
2019-06-10T22:21:32.699Z,18.24
2019-06-10T22:24:36.940Z,18.24
2019-06-10T22:27:42.109Z,18.22
2019-06-10T22:30:47.153Z,18.21
2019-06-10T22:33:54.279Z,18.25
2019-06-10T22:36:57.757Z,18.37
2019-06-10T22:40:03.276Z,18.41
2019-06-10T22:43:07.862Z,18.41
2019-06-10T22:46:11.803Z,18.39
2019-06-10T22:49:15.983Z,18.40
2019-06-10T22:52:22.955Z,18.36
2019-06-10T22:55:26.328Z,18.33
2019-06-10T22:58:30.543Z,18.29
2019-06-10T23:01:38.262Z,18.32
2019-06-10T23:04:40.027Z,18.38
2019-06-10T23:07:43.908Z,18.39
2019-06-10T23:10:48.507Z,18.42
2019-06-10T23:13:53.810Z,18.39
2019-06-10T23:17:00.020Z,18.33
2019-06-10T23:20:04.307Z,18.27
2019-06-10T23:23:08.175Z,18.24
2019-06-10T23:26:13.058Z,18.20
2019-06-10T23:29:17.644Z,18.13
2019-06-10T23:32:22.244Z,18.09
2019-06-10T23:35:26.500Z,18.07
2019-06-10T23:38:32.758Z,18.06
2019-06-10T23:41:36.574Z,18.10
2019-06-10T23:44:40.494Z,18.04
2019-06-10T23:47:45.014Z,18.04
2019-06-10T23:50:49.235Z,18.04
2019-06-10T23:53:56.430Z,18.05
2019-06-10T23:57:01.436Z,17.99
